Chicago, Illinois
Traffic Map
Current Weather Conditions
Chicago, Illinois
Broken Clouds
Broken Clouds
79°
Feels Like: 81°
Wind Chill: 79° Ceiling: 3500
Heat Index: 81° Visibility: 10mi
Dew Point: 63° Wind: 7mph
Humidity: 58% Direction: 240° (WSW)
Pressure: 29.9in Gusts: 0mph
Raw Report DataKMDW 021551Z 24006KT 10SM BKN035 BKN150 BKN300 26/17 A2990 RMK AO2 SLP115 T02610172 $
Traffic Incident Summary
Active as of:
Severity:
Category:
InformationThere was an issue retrieving the traffic information for this location. Please try a different location or try again shortly.
Advertisements
Track Severe Weather on mobile